sensor_id;sensor_type;location;lat;lon;timestamp;pressure;altitude;pressure_sealevel;temperature;humidity
70015;BME280;57358;51.094;6.760;2023-03-21T00:00:39;101182.72;;;9.26;94.07
70015;BME280;57358;51.094;6.760;2023-03-21T00:03:05;101166.44;;;9.17;93.95
70015;BME280;57358;51.094;6.760;2023-03-21T00:05:32;101125.38;;;8.96;94.17
70015;BME280;57358;51.094;6.760;2023-03-21T00:07:59;101175.53;;;9.31;94.33
70015;BME280;57358;51.094;6.760;2023-03-21T00:10:27;101177.06;;;9.14;94.01
70015;BME280;57358;51.094;6.760;2023-03-21T00:13:09;101028.03;;;8.41;94.25
70015;BME280;57358;51.094;6.760;2023-03-21T00:15:39;101160.25;;;9.20;94.58
70015;BME280;57358;51.094;6.760;2023-03-21T00:18:29;101084.41;;;8.73;94.96
70015;BME280;57358;51.094;6.760;2023-03-21T00:20:58;101146.53;;;9.13;95.18
70015;BME280;57358;51.094;6.760;2023-03-21T00:23:46;101176.56;;;9.27;95.16
70015;BME280;57358;51.094;6.760;2023-03-21T00:26:13;101163.53;;;9.25;95.09
70015;BME280;57358;51.094;6.760;2023-03-21T00:28:41;101146.72;;;9.09;95.79
70015;BME280;57358;51.094;6.760;2023-03-21T00:31:09;101147.56;;;9.09;95.83
70015;BME280;57358;51.094;6.760;2023-03-21T00:33:35;101095.44;;;8.81;95.98
70015;BME280;57358;51.094;6.760;2023-03-21T00:36:05;101087.91;;;8.72;96.37
70015;BME280;57358;51.094;6.760;2023-03-21T00:38:32;101169.00;;;9.19;97.45
70015;BME280;57358;51.094;6.760;2023-03-21T00:40:59;101171.69;;;9.17;97.65
70015;BME280;57358;51.094;6.760;2023-03-21T00:43:30;101148.66;;;9.04;98.20
70015;BME280;57358;51.094;6.760;2023-03-21T00:45:57;101146.16;;;9.01;98.73
70015;BME280;57358;51.094;6.760;2023-03-21T00:48:25;101179.50;;;9.19;98.82
70015;BME280;57358;51.094;6.760;2023-03-21T00:50:53;101134.25;;;8.92;98.17
70015;BME280;57358;51.094;6.760;2023-03-21T00:53:20;101170.34;;;9.07;98.56
70015;BME280;57358;51.094;6.760;2023-03-21T00:55:47;101141.72;;;9.03;98.75
70015;BME280;57358;51.094;6.760;2023-03-21T00:58:14;101115.16;;;8.90;99.22
70015;BME280;57358;51.094;6.760;2023-03-21T01:00:41;101050.47;;;8.48;99.36
70015;BME280;57358;51.094;6.760;2023-03-21T01:03:10;101162.06;;;9.18;99.62
70015;BME280;57358;51.094;6.760;2023-03-21T01:05:50;101122.16;;;8.89;99.78
70015;BME280;57358;51.094;6.760;2023-03-21T01:08:37;101158.63;;;9.16;99.87
70015;BME280;57358;51.094;6.760;2023-03-21T01:11:26;101162.88;;;9.20;100.00
70015;BME280;57358;51.094;6.760;2023-03-21T01:13:53;101164.56;;;9.21;99.92
70015;BME280;57358;51.094;6.760;2023-03-21T01:16:32;101051.06;;;8.56;99.78
70015;BME280;57358;51.094;6.760;2023-03-21T01:18:59;101159.34;;;9.21;100.00
70015;BME280;57358;51.094;6.760;2023-03-21T01:21:27;101134.72;;;9.03;100.00
70015;BME280;57358;51.094;6.760;2023-03-21T01:23:53;101150.06;;;9.12;100.00
70015;BME280;57358;51.094;6.760;2023-03-21T01:26:20;101127.53;;;9.08;100.00
70015;BME280;57358;51.094;6.760;2023-03-21T01:28:46;101085.00;;;8.79;100.00
70015;BME280;57358;51.094;6.760;2023-03-21T01:31:15;101050.91;;;8.59;100.00
70015;BME280;57358;51.094;6.760;2023-03-21T01:33:42;101107.28;;;8.90;100.00
70015;BME280;57358;51.094;6.760;2023-03-21T01:36:14;101155.91;;;9.19;100.00
70015;BME280;57358;51.094;6.760;2023-03-21T01:38:42;101080.06;;;8.72;100.00
70015;BME280;57358;51.094;6.760;2023-03-21T01:41:19;101144.22;;;9.06;100.00
70015;BME280;57358;51.094;6.760;2023-03-21T01:43:48;100952.38;;;7.90;100.00
70015;BME280;57358;51.094;6.760;2023-03-21T01:48:49;101159.44;;;9.18;100.00
70015;BME280;57358;51.094;6.760;2023-03-21T01:51:16;101152.50;;;9.17;100.00
70015;BME280;57358;51.094;6.760;2023-03-21T01:53:43;101099.81;;;8.81;100.00
70015;BME280;57358;51.094;6.760;2023-03-21T01:56:21;101150.88;;;9.14;100.00
70015;BME280;57358;51.094;6.760;2023-03-21T01:58:51;100998.44;;;8.16;100.00
70015;BME280;57358;51.094;6.760;2023-03-21T02:01:21;101148.25;;;9.14;100.00
70015;BME280;57358;51.094;6.760;2023-03-21T02:03:48;101123.63;;;8.96;100.00
70015;BME280;57358;51.094;6.760;2023-03-21T02:06:28;101152.81;;;9.09;100.00
70015;BME280;57358;51.094;6.760;2023-03-21T02:09:04;101115.88;;;8.93;100.00
70015;BME280;57358;51.094;6.760;2023-03-21T02:11:34;101131.06;;;9.07;100.00
70015;BME280;57358;51.094;6.760;2023-03-21T02:14:02;101040.78;;;8.50;100.00
70015;BME280;57358;51.094;6.760;2023-03-21T02:16:49;101034.72;;;8.49;100.00
70015;BME280;57358;51.094;6.760;2023-03-21T02:19:46;101133.69;;;9.07;100.00
70015;BME280;57358;51.094;6.760;2023-03-21T02:25:39;101125.81;;;9.07;100.00
70015;BME280;57358;51.094;6.760;2023-03-21T02:28:27;101128.44;;;9.07;100.00
70015;BME280;57358;51.094;6.760;2023-03-21T02:31:13;101127.53;;;9.08;100.00
70015;BME280;57358;51.094;6.760;2023-03-21T02:42:28;101130.03;;;9.11;100.00
70015;BME280;57358;51.094;6.760;2023-03-21T02:47:48;101069.41;;;8.78;100.00
70015;BME280;57358;51.094;6.760;2023-03-21T02:50:25;101083.88;;;8.87;100.00
70015;BME280;57358;51.094;6.760;2023-03-21T02:52:53;101071.88;;;8.81;100.00
70015;BME280;57358;51.094;6.760;2023-03-21T02:55:24;101090.78;;;8.88;100.00
70015;BME280;57358;51.094;6.760;2023-03-21T02:57:53;101067.16;;;8.67;100.00
70015;BME280;57358;51.094;6.760;2023-03-21T03:00:22;100985.47;;;8.13;100.00
70015;BME280;57358;51.094;6.760;2023-03-21T03:02:50;101097.31;;;8.77;100.00
70015;BME280;57358;51.094;6.760;2023-03-21T03:05:36;101093.22;;;8.70;100.00
70015;BME280;57358;51.094;6.760;2023-03-21T03:10:55;101117.16;;;8.83;100.00
70015;BME280;57358;51.094;6.760;2023-03-21T03:18:50;101034.50;;;8.32;100.00
70015;BME280;57358;51.094;6.760;2023-03-21T03:21:23;101096.75;;;8.69;100.00
70015;BME280;57358;51.094;6.760;2023-03-21T03:23:58;101100.38;;;8.65;100.00
70015;BME280;57358;51.094;6.760;2023-03-21T03:26:31;101089.19;;;8.62;100.00
70015;BME280;57358;51.094;6.760;2023-03-21T03:29:03;101101.47;;;8.59;100.00
70015;BME280;57358;51.094;6.760;2023-03-21T03:31:37;101047.75;;;8.26;100.00
70015;BME280;57358;51.094;6.760;2023-03-21T03:34:13;101086.69;;;8.58;100.00
70015;BME280;57358;51.094;6.760;2023-03-21T03:36:46;101085.84;;;8.58;100.00
70015;BME280;57358;51.094;6.760;2023-03-21T03:39:17;101055.03;;;8.43;100.00
70015;BME280;57358;51.094;6.760;2023-03-21T03:41:52;101065.50;;;8.43;100.00
70015;BME280;57358;51.094;6.760;2023-03-21T03:44:40;101076.19;;;8.60;100.00
70015;BME280;57358;51.094;6.760;2023-03-21T03:47:09;101067.75;;;8.52;100.00
70015;BME280;57358;51.094;6.760;2023-03-21T03:49:50;101047.22;;;8.41;100.00
70015;BME280;57358;51.094;6.760;2023-03-21T03:52:25;100950.53;;;7.92;100.00
70015;BME280;57358;51.094;6.760;2023-03-21T03:54:54;100954.75;;;7.96;100.00
70015;BME280;57358;51.094;6.760;2023-03-21T03:57:24;101045.06;;;8.52;100.00
70015;BME280;57358;51.094;6.760;2023-03-21T03:59:51;101067.31;;;8.64;100.00
70015;BME280;57358;51.094;6.760;2023-03-21T04:02:18;101067.13;;;8.69;100.00
70015;BME280;57358;51.094;6.760;2023-03-21T04:04:45;100965.94;;;8.00;100.00
70015;BME280;57358;51.094;6.760;2023-03-21T04:07:12;101045.06;;;8.52;100.00
70015;BME280;57358;51.094;6.760;2023-03-21T04:09:38;101031.31;;;8.47;100.00
70015;BME280;57358;51.094;6.760;2023-03-21T04:12:11;101045.69;;;8.59;100.00
70015;BME280;57358;51.094;6.760;2023-03-21T04:14:38;101067.06;;;8.70;100.00
70015;BME280;57358;51.094;6.760;2023-03-21T04:17:12;101044.88;;;8.57;100.00
70015;BME280;57358;51.094;6.760;2023-03-21T04:19:38;101043.91;;;8.59;100.00
70015;BME280;57358;51.094;6.760;2023-03-21T04:22:05;101069.50;;;8.75;100.00
70015;BME280;57358;51.094;6.760;2023-03-21T04:24:32;101002.97;;;8.35;100.00
70015;BME280;57358;51.094;6.760;2023-03-21T04:26:59;101073.69;;;8.79;100.00
70015;BME280;57358;51.094;6.760;2023-03-21T04:29:26;101024.09;;;8.54;100.00
70015;BME280;57358;51.094;6.760;2023-03-21T04:31:55;100967.72;;;8.22;100.00
70015;BME280;57358;51.094;6.760;2023-03-21T04:34:21;101024.88;;;8.56;100.00
70015;BME280;57358;51.094;6.760;2023-03-21T04:36:49;101016.34;;;8.51;100.00
70015;BME280;57358;51.094;6.760;2023-03-21T04:39:19;101021.34;;;8.57;100.00
70015;BME280;57358;51.094;6.760;2023-03-21T04:41:49;101036.31;;;8.75;100.00
70015;BME280;57358;51.094;6.760;2023-03-21T04:44:16;101006.44;;;8.59;100.00
70015;BME280;57358;51.094;6.760;2023-03-21T04:46:43;100967.78;;;8.44;100.00
70015;BME280;57358;51.094;6.760;2023-03-21T04:49:10;100972.22;;;8.42;100.00
70015;BME280;57358;51.094;6.760;2023-03-21T04:51:36;101056.06;;;8.84;100.00
70015;BME280;57358;51.094;6.760;2023-03-21T04:54:04;101005.06;;;8.72;100.00
70015;BME280;57358;51.094;6.760;2023-03-21T04:56:31;100996.78;;;8.61;100.00
70015;BME280;57358;51.094;6.760;2023-03-21T04:59:01;100982.41;;;8.49;100.00
70015;BME280;57358;51.094;6.760;2023-03-21T05:01:28;100945.69;;;8.29;100.00
70015;BME280;57358;51.094;6.760;2023-03-21T05:03:58;101002.94;;;8.60;100.00
70015;BME280;57358;51.094;6.760;2023-03-21T05:06:26;101035.28;;;8.79;100.00
70015;BME280;57358;51.094;6.760;2023-03-21T05:08:54;101021.00;;;8.66;100.00
70015;BME280;57358;51.094;6.760;2023-03-21T05:11:22;101015.78;;;8.66;100.00
70015;BME280;57358;51.094;6.760;2023-03-21T05:13:48;101023.22;;;8.75;100.00
70015;BME280;57358;51.094;6.760;2023-03-21T05:16:14;100835.13;;;7.57;100.00
70015;BME280;57358;51.094;6.760;2023-03-21T05:18:41;101014.72;;;8.70;100.00
70015;BME280;57358;51.094;6.760;2023-03-21T05:21:07;100922.03;;;8.10;100.00
70015;BME280;57358;51.094;6.760;2023-03-21T05:23:36;101045.50;;;8.86;100.00
70015;BME280;57358;51.094;6.760;2023-03-21T05:26:07;101005.53;;;8.60;100.00
70015;BME280;57358;51.094;6.760;2023-03-21T05:28:34;101048.88;;;8.89;100.00
70015;BME280;57358;51.094;6.760;2023-03-21T05:31:03;101035.38;;;8.78;100.00
70015;BME280;57358;51.094;6.760;2023-03-21T05:33:31;101002.25;;;8.55;100.00
70015;BME280;57358;51.094;6.760;2023-03-21T05:35:58;100959.84;;;8.23;100.00
70015;BME280;57358;51.094;6.760;2023-03-21T05:38:24;100941.13;;;8.12;100.00
70015;BME280;57358;51.094;6.760;2023-03-21T05:40:52;101024.69;;;8.61;100.00
70015;BME280;57358;51.094;6.760;2023-03-21T05:43:19;101026.53;;;8.58;100.00
70015;BME280;57358;51.094;6.760;2023-03-21T05:45:45;100990.03;;;8.32;100.00
70015;BME280;57358;51.094;6.760;2023-03-21T05:48:13;101042.09;;;8.62;100.00
70015;BME280;57358;51.094;6.760;2023-03-21T05:50:40;100995.13;;;8.35;100.00
70015;BME280;57358;51.094;6.760;2023-03-21T05:53:06;101062.63;;;8.72;100.00
70015;BME280;57358;51.094;6.760;2023-03-21T05:55:33;101058.47;;;8.67;100.00
70015;BME280;57358;51.094;6.760;2023-03-21T05:57:59;100900.66;;;7.75;100.00
70015;BME280;57358;51.094;6.760;2023-03-21T06:00:26;101028.63;;;8.49;100.00
70015;BME280;57358;51.094;6.760;2023-03-21T06:02:55;101062.72;;;8.69;100.00
70015;BME280;57358;51.094;6.760;2023-03-21T06:05:21;101064.25;;;8.75;100.00
70015;BME280;57358;51.094;6.760;2023-03-21T06:07:48;101053.84;;;8.73;100.00
70015;BME280;57358;51.094;6.760;2023-03-21T06:10:14;101040.34;;;8.62;100.00
70015;BME280;57358;51.094;6.760;2023-03-21T06:12:41;101060.63;;;8.79;100.00
70015;BME280;57358;51.094;6.760;2023-03-21T06:15:08;101060.56;;;8.81;100.00
70015;BME280;57358;51.094;6.760;2023-03-21T06:17:35;100899.66;;;7.79;100.00
70015;BME280;57358;51.094;6.760;2023-03-21T06:20:03;101057.88;;;8.82;100.00
70015;BME280;57358;51.094;6.760;2023-03-21T06:22:30;101065.56;;;8.87;100.00
70015;BME280;57358;51.094;6.760;2023-03-21T06:24:57;101033.16;;;8.67;100.00
70015;BME280;57358;51.094;6.760;2023-03-21T06:27:24;101061.91;;;8.91;100.00
70015;BME280;57358;51.094;6.760;2023-03-21T06:29:50;101057.31;;;8.74;100.00
70015;BME280;57358;51.094;6.760;2023-03-21T06:32:17;101072.91;;;8.99;100.00
70015;BME280;57358;51.094;6.760;2023-03-21T06:34:44;101049.94;;;8.84;100.00
70015;BME280;57358;51.094;6.760;2023-03-21T06:37:10;101084.88;;;9.06;100.00
70015;BME280;57358;51.094;6.760;2023-03-21T06:39:36;101040.22;;;8.87;100.00
70015;BME280;57358;51.094;6.760;2023-03-21T06:42:03;101056.53;;;8.94;100.00
70015;BME280;57358;51.094;6.760;2023-03-21T06:44:29;101047.78;;;8.95;100.00
70015;BME280;57358;51.094;6.760;2023-03-21T06:46:56;100919.59;;;8.27;100.00
70015;BME280;57358;51.094;6.760;2023-03-21T06:49:23;101081.63;;;9.22;100.00
70015;BME280;57358;51.094;6.760;2023-03-21T06:51:49;100987.84;;;8.67;100.00
70015;BME280;57358;51.094;6.760;2023-03-21T06:54:15;101029.56;;;8.92;100.00
70015;BME280;57358;51.094;6.760;2023-03-21T06:56:44;101057.66;;;9.10;100.00
70015;BME280;57358;51.094;6.760;2023-03-21T06:59:11;101093.41;;;9.32;100.00
70015;BME280;57358;51.094;6.760;2023-03-21T07:01:38;101078.88;;;9.25;100.00
70015;BME280;57358;51.094;6.760;2023-03-21T07:04:05;101094.09;;;9.37;100.00
70015;BME280;57358;51.094;6.760;2023-03-21T07:06:31;101079.53;;;9.30;100.00
70015;BME280;57358;51.094;6.760;2023-03-21T07:08:58;101054.00;;;9.14;100.00
70015;BME280;57358;51.094;6.760;2023-03-21T07:11:24;101077.69;;;9.32;100.00
70015;BME280;57358;51.094;6.760;2023-03-21T07:13:51;101083.97;;;9.28;100.00
70015;BME280;57358;51.094;6.760;2023-03-21T07:16:18;101058.19;;;9.18;100.00
70015;BME280;57358;51.094;6.760;2023-03-21T07:18:46;101074.28;;;9.30;100.00
70015;BME280;57358;51.094;6.760;2023-03-21T07:21:13;101051.19;;;9.19;100.00
70015;BME280;57358;51.094;6.760;2023-03-21T07:23:39;101109.78;;;9.59;100.00
70015;BME280;57358;51.094;6.760;2023-03-21T07:26:06;100989.66;;;8.87;100.00
70015;BME280;57358;51.094;6.760;2023-03-21T07:28:32;101095.91;;;9.57;100.00
70015;BME280;57358;51.094;6.760;2023-03-21T07:31:01;101090.13;;;9.49;100.00
70015;BME280;57358;51.094;6.760;2023-03-21T07:33:31;101073.97;;;9.37;100.00
70015;BME280;57358;51.094;6.760;2023-03-21T07:35:58;101083.09;;;9.49;100.00
70015;BME280;57358;51.094;6.760;2023-03-21T07:38:25;100819.69;;;7.97;100.00
70015;BME280;57358;51.094;6.760;2023-03-21T07:40:52;101027.56;;;9.21;100.00
70015;BME280;57358;51.094;6.760;2023-03-21T07:43:19;101034.53;;;9.42;100.00
70015;BME280;57358;51.094;6.760;2023-03-21T07:45:46;101065.66;;;9.70;100.00
70015;BME280;57358;51.094;6.760;2023-03-21T07:48:12;100937.56;;;8.81;100.00
70015;BME280;57358;51.094;6.760;2023-03-21T07:50:40;101066.03;;;9.61;100.00
70015;BME280;57358;51.094;6.760;2023-03-21T07:53:07;101049.56;;;9.57;100.00
70015;BME280;57358;51.094;6.760;2023-03-21T07:55:34;101035.75;;;9.54;100.00
70015;BME280;57358;51.094;6.760;2023-03-21T07:58:02;101085.22;;;9.82;100.00
70015;BME280;57358;51.094;6.760;2023-03-21T08:00:29;101092.38;;;9.78;100.00
70015;BME280;57358;51.094;6.760;2023-03-21T08:02:56;101032.69;;;9.44;100.00
70015;BME280;57358;51.094;6.760;2023-03-21T08:05:42;101081.28;;;9.72;100.00
70015;BME280;57358;51.094;6.760;2023-03-21T08:08:10;101091.91;;;9.89;100.00
70015;BME280;57358;51.094;6.760;2023-03-21T08:10:36;101058.84;;;9.66;100.00
70015;BME280;57358;51.094;6.760;2023-03-21T08:13:03;100970.56;;;9.05;100.00
70015;BME280;57358;51.094;6.760;2023-03-21T08:15:29;100916.75;;;8.77;100.00
70015;BME280;57358;51.094;6.760;2023-03-21T08:17:57;101050.41;;;9.58;100.00
70015;BME280;57358;51.094;6.760;2023-03-21T08:20:25;101099.25;;;9.81;100.00
70015;BME280;57358;51.094;6.760;2023-03-21T08:22:51;101056.53;;;9.58;100.00
70015;BME280;57358;51.094;6.760;2023-03-21T08:25:19;101093.81;;;9.86;100.00
70015;BME280;57358;51.094;6.760;2023-03-21T08:27:47;101104.28;;;9.86;100.00
70015;BME280;57358;51.094;6.760;2023-03-21T08:30:17;101103.19;;;9.91;100.00
70015;BME280;57358;51.094;6.760;2023-03-21T08:32:43;101098.66;;;9.95;100.00
70015;BME280;57358;51.094;6.760;2023-03-21T08:35:12;101097.63;;;9.99;100.00
70015;BME280;57358;51.094;6.760;2023-03-21T08:37:41;101095.72;;;10.03;100.00
70015;BME280;57358;51.094;6.760;2023-03-21T08:40:14;101092.38;;;9.99;100.00
70015;BME280;57358;51.094;6.760;2023-03-21T08:42:42;101095.00;;;9.99;100.00
70015;BME280;57358;51.094;6.760;2023-03-21T08:45:10;101093.53;;;9.92;100.00
70015;BME280;57358;51.094;6.760;2023-03-21T08:47:36;101076.50;;;9.82;100.00
70015;BME280;57358;51.094;6.760;2023-03-21T08:50:05;101089.28;;;9.89;100.00
70015;BME280;57358;51.094;6.760;2023-03-21T08:52:32;101073.81;;;9.83;100.00
70015;BME280;57358;51.094;6.760;2023-03-21T08:54:59;101085.50;;;9.96;100.00
70015;BME280;57358;51.094;6.760;2023-03-21T08:57:28;101057.16;;;9.84;100.00
70015;BME280;57358;51.094;6.760;2023-03-21T08:59:54;101035.56;;;9.79;100.00
70015;BME280;57358;51.094;6.760;2023-03-21T09:02:21;100923.19;;;9.11;100.00
70015;BME280;57358;51.094;6.760;2023-03-21T09:04:48;101072.81;;;10.06;100.00
70015;BME280;57358;51.094;6.760;2023-03-21T09:07:14;100994.94;;;9.69;100.00
70015;BME280;57358;51.094;6.760;2023-03-21T09:09:42;101084.47;;;10.19;100.00
70015;BME280;57358;51.094;6.760;2023-03-21T09:12:09;101058.47;;;10.15;100.00
70015;BME280;57358;51.094;6.760;2023-03-21T09:14:36;101052.44;;;10.13;100.00
70015;BME280;57358;51.094;6.760;2023-03-21T09:17:02;100895.44;;;9.07;100.00
70015;BME280;57358;51.094;6.760;2023-03-21T09:19:29;101058.91;;;10.04;100.00
70015;BME280;57358;51.094;6.760;2023-03-21T09:21:56;101053.50;;;10.09;100.00
70015;BME280;57358;51.094;6.760;2023-03-21T09:24:23;101076.16;;;10.30;100.00
70015;BME280;57358;51.094;6.760;2023-03-21T09:26:49;100999.75;;;9.98;100.00
70015;BME280;57358;51.094;6.760;2023-03-21T09:29:17;101070.16;;;10.47;100.00
70015;BME280;57358;51.094;6.760;2023-03-21T09:31:46;101042.41;;;10.42;100.00
70015;BME280;57358;51.094;6.760;2023-03-21T09:34:12;101011.47;;;10.29;100.00
70015;BME280;57358;51.094;6.760;2023-03-21T09:36:42;101065.81;;;10.65;100.00
70015;BME280;57358;51.094;6.760;2023-03-21T09:39:10;101070.78;;;10.71;100.00
70015;BME280;57358;51.094;6.760;2023-03-21T09:47:27;101026.50;;;10.64;100.00
70015;BME280;57358;51.094;6.760;2023-03-21T09:50:00;100982.75;;;10.26;100.00
70015;BME280;57358;51.094;6.760;2023-03-21T09:55:22;101044.53;;;11.08;100.00
70015;BME280;57358;51.094;6.760;2023-03-21T09:58:04;101066.59;;;11.40;100.00
70015;BME280;57358;51.094;6.760;2023-03-21T10:00:39;101057.34;;;11.33;100.00
70015;BME280;57358;51.094;6.760;2023-03-21T10:03:19;101037.53;;;11.26;100.00
70015;BME280;57358;51.094;6.760;2023-03-21T10:05:54;101047.03;;;11.28;100.00
70015;BME280;57358;51.094;6.760;2023-03-21T10:08:27;100909.84;;;10.52;100.00
70015;BME280;57358;51.094;6.760;2023-03-21T10:11:01;101042.56;;;11.48;100.00
70015;BME280;57358;51.094;6.760;2023-03-21T10:13:34;100959.97;;;11.01;100.00
70015;BME280;57358;51.094;6.760;2023-03-21T10:16:35;100992.72;;;11.29;100.00
70015;BME280;57358;51.094;6.760;2023-03-21T10:19:11;101036.09;;;11.55;100.00
70015;BME280;57358;51.094;6.760;2023-03-21T10:21:42;101029.56;;;11.62;100.00
70015;BME280;57358;51.094;6.760;2023-03-21T10:24:33;101004.91;;;11.65;100.00
70015;BME280;57358;51.094;6.760;2023-03-21T10:27:00;101009.84;;;11.71;100.00
70015;BME280;57358;51.094;6.760;2023-03-21T10:29:34;101001.28;;;11.67;100.00
70015;BME280;57358;51.094;6.760;2023-03-21T10:32:15;100925.72;;;11.20;100.00
70015;BME280;57358;51.094;6.760;2023-03-21T10:34:47;100958.13;;;11.21;100.00
70015;BME280;57358;51.094;6.760;2023-03-21T10:37:14;100964.72;;;11.10;100.00
70015;BME280;57358;51.094;6.760;2023-03-21T10:39:44;100912.38;;;10.72;100.00
70015;BME280;57358;51.094;6.760;2023-03-21T10:42:25;100998.38;;;11.21;100.00
70015;BME280;57358;51.094;6.760;2023-03-21T10:44:55;100924.88;;;10.67;100.00
70015;BME280;57358;51.094;6.760;2023-03-21T10:47:29;100930.69;;;10.91;100.00
70015;BME280;57358;51.094;6.760;2023-03-21T10:50:11;100961.13;;;11.13;100.00
70015;BME280;57358;51.094;6.760;2023-03-21T10:52:46;100978.34;;;11.18;100.00
70015;BME280;57358;51.094;6.760;2023-03-21T10:55:21;100966.97;;;11.18;100.00
70015;BME280;57358;51.094;6.760;2023-03-21T10:58:03;100943.72;;;11.10;100.00
70015;BME280;57358;51.094;6.760;2023-03-21T11:00:42;100837.25;;;10.52;100.00
70015;BME280;57358;51.094;6.760;2023-03-21T11:03:37;100959.09;;;11.35;100.00
70015;BME280;57358;51.094;6.760;2023-03-21T11:06:16;100950.06;;;11.41;100.00
70015;BME280;57358;51.094;6.760;2023-03-21T11:08:50;100931.72;;;11.40;100.00
70015;BME280;57358;51.094;6.760;2023-03-21T11:11:24;100869.97;;;11.15;100.00
70015;BME280;57358;51.094;6.760;2023-03-21T11:13:58;100876.03;;;11.33;100.00
70015;BME280;57358;51.094;6.760;2023-03-21T11:16:31;100864.56;;;11.34;100.00
70015;BME280;57358;51.094;6.760;2023-03-21T11:21:38;100827.75;;;11.18;100.00
70015;BME280;57358;51.094;6.760;2023-03-21T11:24:05;100901.53;;;11.64;100.00
70015;BME280;57358;51.094;6.760;2023-03-21T11:26:35;100835.09;;;11.29;100.00
70015;BME280;57358;51.094;6.760;2023-03-21T11:32:34;100896.53;;;11.60;100.00
70015;BME280;57358;51.094;6.760;2023-03-21T11:35:17;100909.28;;;11.50;100.00
70015;BME280;57358;51.094;6.760;2023-03-21T11:37:50;100807.78;;;10.98;100.00
70015;BME280;57358;51.094;6.760;2023-03-21T11:40:26;100913.22;;;11.58;100.00
70015;BME280;57358;51.094;6.760;2023-03-21T11:43:27;100918.59;;;11.73;100.00
70015;BME280;57358;51.094;6.760;2023-03-21T11:45:59;100805.56;;;11.24;100.00
70015;BME280;57358;51.094;6.760;2023-03-21T11:48:27;100881.03;;;11.71;100.00
70015;BME280;57358;51.094;6.760;2023-03-21T11:51:04;100898.41;;;11.73;100.00
70015;BME280;57358;51.094;6.760;2023-03-21T11:56:23;100899.09;;;11.77;100.00
70015;BME280;57358;51.094;6.760;2023-03-21T12:06:53;100874.56;;;11.76;100.00
70015;BME280;57358;51.094;6.760;2023-03-21T12:14:45;100903.09;;;11.35;100.00
70015;BME280;57358;51.094;6.760;2023-03-21T12:17:33;100901.31;;;11.18;100.00
70015;BME280;57358;51.094;6.760;2023-03-21T12:20:36;100913.28;;;11.24;100.00
70015;BME280;57358;51.094;6.760;2023-03-21T12:23:15;100918.47;;;11.08;100.00
70015;BME280;57358;51.094;6.760;2023-03-21T12:25:48;100880.25;;;10.85;100.00
70015;BME280;57358;51.094;6.760;2023-03-21T12:28:39;100760.69;;;10.08;100.00
70015;BME280;57358;51.094;6.760;2023-03-21T12:31:22;100883.19;;;10.78;100.00
70015;BME280;57358;51.094;6.760;2023-03-21T12:39:38;100931.47;;;11.62;100.00
70015;BME280;57358;51.094;6.760;2023-03-21T12:45:10;100919.63;;;11.86;100.00
70015;BME280;57358;51.094;6.760;2023-03-21T12:47:42;100890.34;;;11.61;100.00
70015;BME280;57358;51.094;6.760;2023-03-21T12:50:32;100899.88;;;11.79;100.00
70015;BME280;57358;51.094;6.760;2023-03-21T12:53:26;100895.88;;;11.88;100.00
70015;BME280;57358;51.094;6.760;2023-03-21T12:55:57;100883.22;;;11.78;100.00
70015;BME280;57358;51.094;6.760;2023-03-21T12:58:27;100825.97;;;11.52;100.00
70015;BME280;57358;51.094;6.760;2023-03-21T13:01:01;100854.75;;;11.71;100.00
70015;BME280;57358;51.094;6.760;2023-03-21T13:03:34;100883.19;;;12.12;100.00
70015;BME280;57358;51.094;6.760;2023-03-21T13:06:07;100840.59;;;12.05;100.00
70015;BME280;57358;51.094;6.760;2023-03-21T13:08:42;100707.94;;;11.15;100.00
70015;BME280;57358;51.094;6.760;2023-03-21T13:11:14;100837.25;;;11.86;100.00
70015;BME280;57358;51.094;6.760;2023-03-21T13:13:49;100846.19;;;11.83;100.00
70015;BME280;57358;51.094;6.760;2023-03-21T13:24:26;100830.50;;;11.97;100.00
70015;BME280;57358;51.094;6.760;2023-03-21T13:27:18;100818.00;;;11.85;100.00
70015;BME280;57358;51.094;6.760;2023-03-21T13:29:50;100831.50;;;11.79;100.00
70015;BME280;57358;51.094;6.760;2023-03-21T13:37:39;100822.94;;;12.98;100.00
70015;BME280;57358;51.094;6.760;2023-03-21T13:40:20;100784.06;;;12.87;100.00
70015;BME280;57358;51.094;6.760;2023-03-21T13:42:57;100748.13;;;12.86;100.00
70015;BME280;57358;51.094;6.760;2023-03-21T13:45:32;100759.25;;;12.77;100.00
70015;BME280;57358;51.094;6.760;2023-03-21T13:48:03;100671.63;;;12.30;99.32
70015;BME280;57358;51.094;6.760;2023-03-21T13:50:39;100740.50;;;12.82;100.00
70015;BME280;57358;51.094;6.760;2023-03-21T13:55:43;100758.31;;;13.21;98.82
70015;BME280;57358;51.094;6.760;2023-03-21T14:03:33;100720.91;;;13.14;96.48
70015;BME280;57358;51.094;6.760;2023-03-21T14:06:00;100688.50;;;12.85;97.27
70015;BME280;57358;51.094;6.760;2023-03-21T14:08:28;100620.13;;;12.41;97.82
70015;BME280;57358;51.094;6.760;2023-03-21T14:11:06;100623.44;;;12.44;98.65
70015;BME280;57358;51.094;6.760;2023-03-21T14:13:35;100689.34;;;12.71;97.78
70015;BME280;57358;51.094;6.760;2023-03-21T14:16:16;100726.13;;;12.87;98.89
70015;BME280;57358;51.094;6.760;2023-03-21T14:19:18;100674.03;;;12.64;97.08
70015;BME280;57358;51.094;6.760;2023-03-21T14:21:46;100706.81;;;12.72;97.70
70015;BME280;57358;51.094;6.760;2023-03-21T14:24:13;100692.91;;;12.85;96.46
70015;BME280;57358;51.094;6.760;2023-03-21T14:26:53;100620.78;;;12.58;94.59
70015;BME280;57358;51.094;6.760;2023-03-21T14:29:25;100591.38;;;12.52;92.70
70015;BME280;57358;51.094;6.760;2023-03-21T14:31:54;100654.38;;;13.11;91.39
70015;BME280;57358;51.094;6.760;2023-03-21T14:34:22;100641.88;;;13.14;91.02